Time;durP1;ratioP1;P1;durP2;ratioP2;P2;SDS_P1;SDS_P2;PMS_P1;PMS_P2;Temp;Humidity;BMP_temperature;BMP_pressure;BME280_temperature;BME280_humidity;BME280_pressure;Samples;Min_cycle;Max_cycle;Signal;HPM_P1;HPM_P2
2022/09/01 00:01:03;;;;;;;17.87;7.83;;;;;;;23.53;57.25;99733.67;1781237;80;21723;-84
2022/09/01 00:04:10;;;;;;;14.87;7.00;;;;;;;23.42;57.54;99732.79;1743330;82;21857;-83
2022/09/01 00:07:15;;;;;;;12.20;6.83;;;;;;;23.33;57.83;99731.09;1781213;80;21468;-84
2022/09/01 00:10:19;;;;;;;14.90;7.55;;;;;;;23.47;57.35;99726.66;1744046;82;21827;-83
2022/09/01 00:13:26;;;;;;;12.07;7.70;;;;;;;23.40;57.49;99723.87;1779858;80;21196;-83
2022/09/01 00:16:32;;;;;;;16.70;8.75;;;;;;;23.31;57.62;99724.95;1781278;80;21200;-83
2022/09/01 00:19:38;;;;;;;17.30;8.75;;;;;;;23.33;57.48;99721.88;1743369;82;21641;-83
2022/09/01 00:22:44;;;;;;;12.45;8.10;;;;;;;23.39;57.25;99719.41;1781086;80;21176;-83
2022/09/01 00:25:50;;;;;;;14.65;8.08;;;;;;;23.36;57.37;99717.99;1779886;80;21200;-83
2022/09/01 00:28:56;;;;;;;14.68;8.55;;;;;;;23.32;57.44;99716.86;1780205;79;21220;-83
2022/09/01 00:31:55;;;;;;;14.35;8.70;;;;;;;23.23;57.62;99710.70;1779799;80;21180;-83
2022/09/01 00:35:01;;;;;;;17.05;7.95;;;;;;;23.17;57.95;99709.84;1780398;80;21247;-83
2022/09/01 00:38:06;;;;;;;14.13;8.30;;;;;;;23.09;58.35;99718.17;1781209;80;21169;-83
2022/09/01 00:41:12;;;;;;;18.60;8.80;;;;;;;22.99;58.66;99724.27;1745134;82;21252;-83
2022/09/01 00:44:22;;;;;;;13.70;7.72;;;;;;;23.11;58.30;99729.91;1779791;80;21188;-83
2022/09/01 00:47:28;;;;;;;;;;;;;;;23.13;58.34;99726.84;1750031;82;21197;-83
2022/09/01 00:50:34;;;;;;;14.60;7.47;;;;;;;23.21;58.24;99717.39;1742392;81;20633;-83
2022/09/01 00:53:40;;;;;;;21.15;7.95;;;;;;;23.15;58.45;99714.88;1787774;79;21165;-83
2022/09/01 00:56:46;;;;;;;15.45;8.60;;;;;;;23.28;58.01;99721.30;1785012;79;21177;-83
2022/09/01 00:59:58;;;;;;;17.35;8.48;;;;;;;23.27;57.86;99727.17;1802456;79;21188;-83
2022/09/01 01:03:03;;;;;;;16.67;8.43;;;;;;;23.30;57.96;99721.89;1801290;79;21244;-84
2022/09/01 01:06:12;;;;;;;15.68;8.20;;;;;;;23.21;58.20;99716.00;1801374;79;21185;-83
2022/09/01 01:09:19;;;;;;;19.32;7.75;;;;;;;23.29;58.11;99716.56;1777595;79;21244;-83
2022/09/01 01:12:26;;;;;;;15.78;7.97;;;;;;;23.36;57.87;99708.78;1736308;82;21186;-83
2022/09/01 01:15:32;;;;;;;14.68;8.60;;;;;;;23.40;57.64;99715.50;1735775;82;21221;-84
2022/09/01 01:18:38;;;;;;;15.80;8.80;;;;;;;23.42;57.50;99716.88;1769484;81;21244;-83
2022/09/01 01:25:13;;;;;;;20.15;8.50;;;;;;;23.11;58.38;99713.18;1770777;81;21188;-83
2022/09/01 01:28:34;;;;;;;13.53;6.85;;;;;;;23.09;58.35;99715.38;1769516;81;21172;-83
2022/09/01 01:31:40;;;;;;;13.38;8.25;;;;;;;23.31;57.73;99714.35;1770878;81;21177;-83
2022/09/01 01:34:47;;;;;;;15.68;7.78;;;;;;;23.46;57.28;99717.17;1770752;81;21200;-84
2022/09/01 01:37:53;;;;;;;14.90;7.03;;;;;;;23.28;58.00;99711.55;1770855;80;21374;-83
2022/09/01 01:41:00;;;;;;;12.40;7.40;;;;;;;23.18;58.18;99702.59;1770294;81;21879;-84
2022/09/01 01:44:07;;;;;;;14.38;7.72;;;;;;;23.29;58.01;99701.22;1770903;81;21185;-84
2022/09/01 01:47:16;;;;;;;17.70;8.03;;;;;;;23.20;58.17;99708.75;1771063;81;21193;-84
2022/09/01 01:50:25;;;;;;;12.98;8.78;;;;;;;23.11;58.66;99702.02;1770435;81;21874;-84
2022/09/01 01:53:30;;;;;;;15.90;8.65;;;;;;;23.06;58.71;99697.82;1769481;80;21197;-85
2022/09/01 01:56:38;;;;;;;13.75;8.40;;;;;;;22.78;59.30;99701.85;1735545;82;21213;-84
2022/09/01 01:59:44;;;;;;;14.58;9.00;;;;;;;22.75;59.66;99693.19;1736588;82;21514;-84
2022/09/01 02:02:54;;;;;;;15.03;8.88;;;;;;;22.93;59.29;99699.72;1770709;81;21768;-84
2022/09/01 02:06:07;;;;;;;15.15;8.60;;;;;;;22.95;59.10;99695.52;1735901;82;21769;-84
2022/09/01 02:09:07;;;;;;;17.07;9.30;;;;;;;22.80;59.51;99695.99;1720099;81;21189;-84
2022/09/01 02:12:18;;;;;;;15.40;8.78;;;;;;;22.82;59.47;99696.02;1759403;81;21276;-85
2022/09/01 02:15:22;;;;;;;12.35;7.65;;;;;;;22.83;59.22;99692.67;1758384;81;21190;-84
2022/09/01 02:18:41;;;;;;;16.30;8.75;;;;;;;22.78;59.35;99698.23;1759674;81;21173;-85
2022/09/01 02:21:53;;;;;;;16.45;8.28;;;;;;;22.78;59.06;99707.98;1758475;81;21205;-84
2022/09/01 02:24:56;;;;;;;15.45;8.03;;;;;;;22.89;58.85;99710.56;1786791;80;21718;-84
2022/09/01 02:28:03;;;;;;;15.50;7.42;;;;;;;22.84;58.74;99714.70;1786770;80;21183;-84
2022/09/01 02:31:09;;;;;;;19.82;8.60;;;;;;;22.86;58.80;99719.99;1786895;80;21447;-83
2022/09/01 02:34:16;;;;;;;16.57;8.28;;;;;;;22.86;58.57;99720.83;1786799;80;21224;-83
2022/09/01 02:37:24;;;;;;;14.95;8.35;;;;;;;22.82;58.59;99728.61;1785762;80;21205;-84
2022/09/01 02:40:31;;;;;;;16.27;8.43;;;;;;;22.85;58.44;99726.69;1786723;80;21475;-83
2022/09/01 02:43:38;;;;;;;14.05;7.30;;;;;;;22.78;58.69;99726.94;1787013;80;21182;-83
2022/09/01 02:46:46;;;;;;;19.32;8.33;;;;;;;22.83;58.66;99732.55;1785443;80;21154;-83
2022/09/01 02:49:53;;;;;;;12.45;7.78;;;;;;;22.89;58.38;99732.04;1785524;80;21233;-82
2022/09/01 02:53:00;;;;;;;14.07;8.45;;;;;;;22.93;58.25;99738.75;1780895;80;21208;-83
2022/09/01 02:56:13;;;;;;;13.43;8.20;;;;;;;22.89;58.42;99737.61;1767675;81;21217;-83
2022/09/01 02:59:14;;;;;;;17.67;8.28;;;;;;;22.89;58.49;99733.44;1769203;81;21177;-84
2022/09/01 03:02:27;;;;;;;13.70;8.08;;;;;;;22.84;58.70;99729.20;1769542;81;21787;-84
2022/09/01 03:05:37;;;;;;;22.73;8.23;;;;;;;22.88;58.49;99727.55;1769263;81;21173;-83
2022/09/01 03:08:43;;;;;;;13.60;7.75;;;;;;;22.88;58.58;99731.73;1770059;81;21728;-83
2022/09/01 03:11:53;;;;;;;14.18;8.78;;;;;;;22.91;58.47;99727.02;1770464;81;21808;-83
2022/09/01 03:14:59;;;;;;;15.38;7.60;;;;;;;22.96;58.33;99725.67;1770888;81;21181;-84
2022/09/01 03:18:07;;;;;;;21.15;8.88;;;;;;;23.09;58.14;99723.75;1769645;81;21213;-83
2022/09/01 03:21:14;;;;;;;19.37;8.13;;;;;;;23.18;57.95;99725.46;1770540;81;21209;-84
2022/09/01 03:24:23;;;;;;;19.02;9.90;;;;;;;23.31;57.53;99723.56;1769251;81;21145;-84
2022/09/01 03:27:30;;;;;;;22.50;9.65;;;;;;;23.41;57.17;99722.19;1735059;82;21221;-84
2022/09/01 03:30:39;;;;;;;21.12;10.28;;;;;;;23.39;57.27;99720.24;1771002;81;22592;-84
2022/09/01 03:33:45;;;;;;;17.30;10.05;;;;;;;23.44;57.19;99720.25;1736450;82;21186;-84
2022/09/01 03:36:53;;;;;;;26.07;10.50;;;;;;;23.22;57.84;99722.41;1770669;81;21240;-84
2022/09/01 03:39:59;;;;;;;20.00;10.48;;;;;;;23.28;57.74;99720.47;1733875;82;21181;-84
2022/09/01 03:43:06;;;;;;;22.75;10.75;;;;;;;23.43;57.48;99721.38;1770256;80;21232;-84
2022/09/01 03:46:18;;;;;;;25.97;11.80;;;;;;;23.49;57.33;99731.98;1734059;82;21212;-83
2022/09/01 03:49:23;;;;;;;26.20;12.13;;;;;;;23.43;57.59;99740.91;1770947;81;21239;-84
2022/09/01 03:52:28;;;;;;;27.10;12.28;;;;;;;23.37;58.03;99741.15;1734364;81;21257;-84
2022/09/01 03:55:37;;;;;;;23.65;11.33;;;;;;;23.64;57.26;99743.21;1800403;79;21212;-84
2022/09/01 03:58:36;;;;;;;18.80;10.90;;;;;;;23.71;57.00;99747.12;1801290;79;21217;-85
2022/09/01 04:01:42;;;;;;;20.92;10.85;;;;;;;23.55;57.34;99752.37;1801001;79;21224;-84
2022/09/01 04:04:48;;;;;;;23.18;10.95;;;;;;;23.42;57.66;99750.93;1802438;79;21235;-84
2022/09/01 04:07:55;;;;;;;37.28;14.40;;;;;;;23.49;57.68;99759.06;1801564;79;21772;-84
2022/09/01 04:11:03;;;;;;;19.90;10.30;;;;;;;23.53;57.66;99757.40;1802295;79;21452;-84
2022/09/01 04:14:11;;;;;;;22.20;11.35;;;;;;;23.62;57.60;99764.96;1802162;79;21212;-84
2022/09/01 04:20:49;;;;;;;16.87;9.80;;;;;;;23.73;57.47;99759.42;1802452;79;21161;-84
2022/09/01 04:23:47;;;;;;;23.05;9.88;;;;;;;23.81;57.15;99760.28;1784590;79;21145;-83
2022/09/01 04:26:53;;;;;;;19.92;10.35;;;;;;;24.02;56.67;99757.78;1769645;81;21747;-83
2022/09/01 04:30:00;;;;;;;22.37;10.25;;;;;;;24.20;56.18;99765.61;1736529;82;21186;-83
2022/09/01 04:33:08;;;;;;;17.10;9.43;;;;;;;24.30;56.13;99766.73;1771041;81;21795;-84
2022/09/01 04:36:31;;;;;;;17.25;10.13;;;;;;;24.42;55.79;99761.17;1736273;82;21182;-83
2022/09/01 04:39:37;;;;;;;20.17;10.10;;;;;;;24.45;55.93;99752.20;1760880;81;21768;-83
2022/09/01 04:42:43;;;;;;;22.65;10.78;;;;;;;24.53;55.85;99743.81;1759800;81;22391;-83
2022/09/01 04:45:55;;;;;;;24.40;11.00;;;;;;;24.82;55.14;99739.83;1759673;81;21177;-84
2022/09/01 04:49:00;;;;;;;23.85;11.93;;;;;;;24.86;54.98;99742.91;1758793;81;21197;-83
2022/09/01 04:52:07;;;;;;;28.02;11.55;;;;;;;25.09;53.98;99733.90;1759554;81;21787;-83
2022/09/01 04:55:16;;;;;;;28.52;12.43;;;;;;;25.23;53.33;99722.36;1714618;82;21225;-83
2022/09/01 04:58:24;;;;;;;25.75;10.32;;;;;;;25.49;52.73;99729.20;1767978;81;21237;-84
2022/09/01 05:01:41;;;;;;;26.90;10.85;;;;;;;25.67;51.89;99728.53;1766911;81;21240;-83
2022/09/01 05:04:45;;;;;;;26.48;11.38;;;;;;;25.68;52.04;99730.77;1767181;81;21209;-84
2022/09/01 05:07:51;;;;;;;21.42;10.25;;;;;;;25.70;52.14;99736.94;1766864;79;21205;-83
2022/09/01 05:10:56;;;;;;;20.10;9.70;;;;;;;25.91;51.41;99741.28;1785267;79;21171;-82
2022/09/01 05:14:05;;;;;;;18.37;8.60;;;;;;;26.13;51.03;99745.05;1785566;79;21295;-84
2022/09/01 05:17:09;;;;;;;24.52;8.68;;;;;;;26.32;50.67;99741.52;1770054;79;21201;-83
2022/09/01 05:19:59;;;;;;;20.55;8.50;;;;;;;26.12;50.64;99743.38;1772169;81;21522;-84
2022/09/01 05:23:04;;;;;;;13.10;7.33;;;;;;;26.22;50.02;99746.66;1777859;79;21743;-83
2022/09/01 05:26:13;;;;;;;19.85;8.18;;;;;;;26.52;49.41;99744.16;1783293;79;21208;-83
2022/09/01 05:29:17;;;;;;;20.88;7.90;;;;;;;26.72;48.48;99762.20;1729477;81;22281;-83
2022/09/01 05:32:24;;;;;;;14.47;7.95;;;;;;;26.36;49.00;99758.86;1788421;78;21181;-82
2022/09/01 05:35:30;;;;;;;20.62;7.90;;;;;;;26.08;49.99;99761.07;1783544;79;21788;-82
2022/09/01 05:38:40;;;;;;;17.60;7.30;;;;;;;26.18;49.62;99759.02;1783736;79;21168;-83
2022/09/01 05:41:48;;;;;;;25.35;7.70;;;;;;;26.06;49.65;99764.14;1751297;79;21204;-83
2022/09/01 05:44:56;;;;;;;16.23;7.17;;;;;;;25.98;50.19;99767.59;1781068;79;21307;-83
2022/09/01 05:48:04;;;;;;;12.10;6.55;;;;;;;25.86;50.45;99772.14;1789222;79;21165;-83
2022/09/01 05:51:16;;;;;;;14.10;7.08;;;;;;;25.83;50.60;99774.14;1784923;79;21216;-84
2022/09/01 05:54:40;;;;;;;12.67;6.30;;;;;;;25.81;50.85;99776.38;1788718;78;21157;-85
2022/09/01 05:57:48;;;;;;;12.95;6.17;;;;;;;25.96;50.39;99773.46;1780091;79;21167;-84
2022/09/01 06:00:55;;;;;;;19.20;5.90;;;;;;;26.13;50.19;99773.64;1788620;79;21184;-84
2022/09/01 06:04:07;;;;;;;9.25;5.62;;;;;;;26.27;49.89;99771.84;1785410;78;21153;-84
2022/09/01 06:07:14;;;;;;;9.18;5.72;;;;;;;26.35;49.88;99773.16;1790575;78;21358;-84
2022/09/01 06:10:23;;;;;;;8.58;4.92;;;;;;;26.58;49.36;99780.83;1758325;78;22120;-83
2022/09/01 06:13:31;;;;;;;8.35;5.05;;;;;;;26.63;48.94;99776.59;1790457;78;21180;-84
2022/09/01 06:16:38;;;;;;;7.60;5.30;;;;;;;26.47;49.56;99775.05;1786941;78;22513;-85
2022/09/01 06:19:45;;;;;;;11.65;5.55;;;;;;;26.57;49.47;99783.36;1783668;78;21306;-84
2022/09/01 06:22:52;;;;;;;10.50;5.20;;;;;;;27.85;46.29;99781.88;1754770;81;21822;-85
2022/09/01 06:26:00;;;;;;;8.15;5.25;;;;;;;28.21;45.09;99785.81;1724193;82;21201;-83
2022/09/01 06:29:08;;;;;;;6.83;4.45;;;;;;;28.36;44.90;99785.33;1782006;78;21258;-84
2022/09/01 06:32:16;;;;;;;7.20;4.33;;;;;;;28.67;44.56;99787.87;1753549;80;21193;-84
2022/09/01 06:35:28;;;;;;;10.30;5.05;;;;;;;28.36;44.67;99797.98;1792059;79;21847;-84
2022/09/01 06:38:33;;;;;;;7.10;4.37;;;;;;;28.37;44.29;99789.26;1766220;79;21861;-84
2022/09/01 06:41:40;;;;;;;9.18;4.87;;;;;;;28.39;44.12;99790.34;1784770;78;21213;-84
2022/09/01 06:44:50;;;;;;;10.35;4.87;;;;;;;27.80;45.55;99796.00;1784907;78;21184;-84
2022/09/01 06:47:51;;;;;;;11.45;5.33;;;;;;;27.70;45.89;99791.33;1787820;78;21852;-84
2022/09/01 06:50:58;;;;;;;6.45;4.37;;;;;;;27.81;45.55;99793.45;1786667;78;21248;-84
2022/09/01 06:54:05;;;;;;;7.53;4.60;;;;;;;28.02;45.12;99793.43;1789541;79;21165;-84
2022/09/01 06:57:12;;;;;;;10.32;4.15;;;;;;;27.86;45.43;99791.43;1781975;79;21724;-83
2022/09/01 07:00:22;;;;;;;11.12;4.95;;;;;;;27.70;45.64;99790.77;1783051;79;21640;-84
2022/09/01 07:03:28;;;;;;;;;;;;;;;25.99;49.04;99784.66;1777165;79;21201;-85
2022/09/01 07:06:42;;;;;;;7.28;3.85;;;;;;;25.60;50.65;99784.05;1756165;81;20950;-84
2022/09/01 07:10:09;;;;;;;8.15;4.08;;;;;;;25.63;51.09;99784.84;1721251;79;21593;-84
2022/09/01 07:13:26;;;;;;;6.92;4.42;;;;;;;25.66;51.27;99788.48;1783624;79;21862;-85
2022/09/01 07:16:33;;;;;;;7.08;4.50;;;;;;;25.71;51.27;99780.61;1779357;78;21488;-85
2022/09/01 07:19:40;;;;;;;6.05;4.67;;;;;;;25.97;50.71;99779.36;1788961;79;21244;-85
2022/09/01 07:22:48;;;;;;;11.40;4.60;;;;;;;26.17;50.28;99779.77;1778092;79;21153;-83
2022/09/01 07:25:57;;;;;;;11.35;4.72;;;;;;;26.79;49.32;99782.05;1789252;78;21205;-83
2022/09/01 07:29:05;;;;;;;8.48;4.17;;;;;;;27.14;47.81;99785.88;1795006;78;21197;-84
2022/09/01 07:32:07;;;;;;;7.05;4.37;;;;;;;26.95;47.16;99782.13;1782242;78;21232;-84
2022/09/01 07:35:18;;;;;;;9.43;4.35;;;;;;;27.17;46.80;99781.64;1774473;79;21772;-83
2022/09/01 07:38:31;;;;;;;7.65;4.05;;;;;;;27.31;46.75;99781.76;1788358;79;21346;-84
2022/09/01 07:41:38;;;;;;;8.28;3.98;;;;;;;27.64;46.29;99780.74;1782438;78;21775;-85
2022/09/01 07:45:10;;;;;;;22.67;5.55;;;;;;;27.84;45.88;99774.59;1785739;79;22241;-83
2022/09/01 07:48:24;;;;;;;14.43;4.87;;;;;;;28.07;45.08;99784.91;1780465;79;21189;-84
2022/09/01 07:51:34;;;;;;;16.73;5.05;;;;;;;28.22;44.55;99776.23;1786088;78;22238;-83
2022/09/01 07:54:42;;;;;;;7.42;3.90;;;;;;;28.12;43.45;99771.34;1782289;78;21167;-86
2022/09/01 07:57:49;;;;;;;9.93;3.62;;;;;;;28.22;43.17;99766.96;1784449;79;21325;-83
2022/09/01 08:00:58;;;;;;;7.05;3.40;;;;;;;28.42;42.83;99776.52;1767453;79;21193;-84
2022/09/01 08:04:05;;;;;;;11.57;4.22;;;;;;;28.56;41.95;99763.89;1710511;83;21183;-85
2022/09/01 08:07:10;;;;;;;10.35;3.90;;;;;;;28.56;41.67;99765.30;1748525;81;21158;-85
2022/09/01 08:10:17;;;;;;;6.92;3.92;;;;;;;28.70;41.87;99760.53;1710107;83;21187;-84
2022/09/01 08:13:24;;;;;;;4.85;3.35;;;;;;;29.14;41.36;99761.95;1702373;83;21194;-85
2022/09/01 08:16:34;;;;;;;10.48;4.05;;;;;;;29.56;40.11;99757.72;1712973;82;21178;-83
2022/09/01 08:19:42;;;;;;;6.28;3.60;;;;;;;29.65;39.00;99750.19;1695437;84;21123;-83
2022/09/01 08:22:57;;;;;;;11.40;3.70;;;;;;;29.45;38.66;99752.83;1751773;80;21218;-86
2022/09/01 08:26:03;;;;;;;12.60;4.30;;;;;;;29.42;39.08;99752.08;1748172;81;21201;-85
2022/09/01 08:29:08;;;;;;;7.55;3.62;;;;;;;29.53;39.04;99756.33;1736723;81;21519;-85
2022/09/01 08:32:13;;;;;;;15.38;3.77;;;;;;;29.62;37.93;99752.22;1742156;82;21241;-85
2022/09/01 08:35:18;;;;;;;7.15;3.87;;;;;;;29.82;37.87;99751.73;1753600;81;21214;-85
2022/09/01 08:38:26;;;;;;;6.12;3.58;;;;;;;29.93;38.00;99751.78;1752040;81;21249;-85
2022/09/01 08:42:04;;;;;;;9.68;3.47;;;;;;;29.54;38.60;99756.03;1742668;81;21218;-85
2022/09/01 08:45:40;;;;;;;9.00;3.35;;;;;;;29.26;38.93;99763.64;1738176;81;21470;-84
2022/09/01 08:48:56;;;;;;;9.23;3.60;;;;;;;29.01;38.18;99759.96;1743427;81;21273;-85
2022/09/01 08:52:44;;;;;;;4.97;3.58;;;;;;;28.82;38.75;99749.33;1667003;84;21330;-84
2022/09/01 08:55:53;;;;;;;;;;;;;;;28.81;39.50;99747.67;1746197;80;21146;-85
2022/09/01 08:58:59;;;;;;;9.00;3.52;;;;;;;28.86;38.68;99748.41;1744187;80;20252;-84
2022/09/01 09:03:07;;;;;;;6.08;3.15;;;;;;;28.83;38.69;99741.14;1703794;83;21245;-85
2022/09/01 09:06:59;;;;;;;10.00;3.33;;;;;;;28.73;38.79;99742.18;1739081;81;21237;-84
2022/09/01 09:10:18;;;;;;;11.08;3.27;;;;;;;28.67;39.15;99739.21;1741529;80;21187;-83
2022/09/01 09:13:49;;;;;;;7.10;3.30;;;;;;;28.71;39.18;99743.91;1698790;84;21209;-83
2022/09/01 09:16:53;;;;;;;4.55;2.45;;;;;;;28.91;39.47;99746.06;1670819;85;21277;-83
2022/09/01 09:19:57;;;;;;;8.23;3.70;;;;;;;28.93;39.46;99752.20;1723917;82;21186;-83
2022/09/01 09:23:03;;;;;;;5.60;3.45;;;;;;;29.10;38.91;99749.64;1684054;84;21323;-84
2022/09/01 09:26:08;;;;;;;9.68;3.12;;;;;;;29.02;38.60;99754.58;1696937;83;21223;-83
2022/09/01 09:29:15;;;;;;;9.43;3.27;;;;;;;28.93;38.65;99752.20;1733714;81;21189;-84
2022/09/01 09:32:21;;;;;;;7.60;2.77;;;;;;;28.73;39.30;99747.81;1737720;81;21268;-83
2022/09/01 09:35:45;;;;;;;8.00;2.67;;;;;;;28.74;39.28;99741.86;1739827;81;21170;-84
2022/09/01 09:38:50;;;;;;;8.33;3.58;;;;;;;28.68;39.46;99741.70;1730319;81;21252;-84
2022/09/01 09:42:12;;;;;;;4.72;2.87;;;;;;;28.92;39.76;99749.96;1729522;81;21456;-84
2022/09/01 09:45:37;;;;;;;8.10;3.30;;;;;;;28.96;39.18;99742.59;1732232;81;21221;-84
2022/09/01 09:48:43;;;;;;;6.05;2.85;;;;;;;28.77;39.63;99744.06;1685983;83;21209;-83
2022/09/01 09:51:50;;;;;;;9.75;3.50;;;;;;;28.82;39.66;99737.50;1735734;81;22340;-83
2022/09/01 09:55:12;;;;;;;13.05;3.77;;;;;;;28.96;39.48;99736.14;1726834;81;21178;-83
2022/09/01 09:58:19;;;;;;;10.35;3.92;;;;;;;29.11;39.68;99744.84;1731599;81;21193;-83
2022/09/01 10:01:35;;;;;;;15.75;4.12;;;;;;;29.29;38.99;99741.91;1654262;84;21170;-84
2022/09/01 10:04:46;;;;;;;11.57;3.90;;;;;;;29.33;38.23;99741.29;1686749;83;21218;-84
2022/09/01 10:07:53;;;;;;;7.67;2.85;;;;;;;29.17;38.40;99750.07;1704796;83;21238;-84
2022/09/01 10:10:59;;;;;;;9.55;4.22;;;;;;;29.22;38.64;99733.64;1706302;82;21249;-84
2022/09/01 10:14:06;;;;;;;11.63;3.55;;;;;;;29.50;37.87;99735.81;1744638;81;21166;-84
2022/09/01 10:17:24;;;;;;;16.65;4.50;;;;;;;29.62;37.75;99727.69;1763046;79;21173;-84
2022/09/01 10:20:33;;;;;;;10.10;3.62;;;;;;;29.62;37.42;99737.55;1727873;81;21239;-83
2022/09/01 10:23:40;;;;;;;8.60;4.53;;;;;;;29.77;37.04;99732.97;1708514;83;21194;-84
2022/09/01 10:26:48;;;;;;;9.20;4.20;;;;;;;29.71;36.34;99746.92;1691721;83;21127;-83
2022/09/01 10:30:10;;;;;;;13.95;4.60;;;;;;;29.58;36.58;99740.74;1700847;83;21773;-84
2022/09/01 10:33:17;;;;;;;8.33;4.10;;;;;;;29.52;36.80;99739.17;1708109;83;21200;-83
2022/09/01 10:36:24;;;;;;;12.60;4.12;;;;;;;29.55;37.15;99741.39;1696681;83;21198;-83
2022/09/01 10:39:29;;;;;;;11.40;3.62;;;;;;;29.62;36.87;99742.36;1706756;82;21245;-83
2022/09/01 10:42:36;;;;;;;12.50;3.80;;;;;;;29.61;36.25;99749.98;1763799;79;21201;-83
2022/09/01 10:45:45;;;;;;;8.60;3.50;;;;;;;29.62;36.35;99745.17;1752242;79;21292;-84
2022/09/01 10:48:54;;;;;;;9.78;3.40;;;;;;;29.50;36.20;99735.81;1748045;79;21785;-84
2022/09/01 10:52:04;;;;;;;7.87;3.80;;;;;;;29.41;36.88;99737.16;1760124;80;21158;-84
2022/09/01 10:55:12;;;;;;;7.25;3.90;;;;;;;29.38;37.11;99738.36;1753683;80;21170;-84
2022/09/01 10:58:53;;;;;;;7.22;3.72;;;;;;;29.47;36.87;99736.47;1755071;80;21469;-83
2022/09/01 11:02:05;;;;;;;10.40;3.42;;;;;;;29.34;37.31;99740.97;1761456;80;21322;-84
2022/09/01 11:05:16;;;;;;;12.75;3.33;;;;;;;29.60;37.26;99741.28;1764796;79;21263;-84
2022/09/01 11:08:37;;;;;;;10.60;3.05;;;;;;;29.49;37.25;99742.03;1757672;77;63612;-87
2022/09/01 11:12:05;;;;;;;14.47;3.70;;;;;;;29.43;37.26;99734.02;1720339;81;21177;-87
2022/09/01 11:15:24;;;;;;;13.25;3.10;;;;;;;29.27;37.08;99727.90;1697028;82;21206;-87
2022/09/01 11:18:36;;;;;;;10.13;3.30;;;;;;;29.42;37.30;99719.11;1733620;81;21201;-88
2022/09/01 11:21:42;;;;;;;6.55;3.60;;;;;;;29.44;37.30;99710.33;1731367;81;21169;-87
2022/09/01 11:24:55;;;;;;;4.17;2.42;;;;;;;29.63;36.68;99720.06;1702185;82;21194;-87
2022/09/01 11:28:03;;;;;;;8.90;2.80;;;;;;;29.68;36.58;99715.14;1708186;82;21714;-77
2022/09/01 11:31:29;;;;;;;4.42;2.65;;;;;;;29.95;35.64;99720.44;1743116;80;21749;-77
2022/09/01 11:34:35;;;;;;;9.80;2.60;;;;;;;29.78;35.74;99710.70;1746954;82;21160;-86
2022/09/01 11:37:43;;;;;;;5.15;2.52;;;;;;;29.78;35.65;99710.70;1747562;80;21192;-88
2022/09/01 11:40:54;;;;;;;7.62;2.50;;;;;;;29.89;35.76;99711.86;1745362;80;21302;-77
2022/09/01 11:44:03;;;;;;;9.98;2.58;;;;;;;29.82;35.63;99700.17;1707428;82;21177;-77
2022/09/01 11:47:15;;;;;;;7.92;2.47;;;;;;;29.82;35.31;99705.81;1788549;79;21109;-87
2022/09/01 11:50:27;;;;;;;5.90;2.25;;;;;;;29.64;35.67;99702.01;1743585;81;21220;-77
2022/09/01 11:53:32;;;;;;;5.58;2.17;;;;;;;29.62;35.88;99692.47;1766034;79;21718;-87
2022/09/01 11:56:39;;;;;;;8.55;2.70;;;;;;;29.54;35.81;99691.23;1765425;81;21143;-77
2022/09/01 11:59:45;;;;;;;12.65;2.75;;;;;;;29.58;35.62;99694.25;1762324;80;21643;-87
2022/09/01 12:03:10;;;;;;;5.25;2.00;;;;;;;29.50;35.77;99694.97;1764223;81;21165;-87
2022/09/01 12:06:14;;;;;;;6.87;2.40;;;;;;;29.37;36.04;99694.45;1699009;83;21762;-77
2022/09/01 12:09:19;;;;;;;6.60;2.00;;;;;;;29.36;35.64;99689.94;1741371;81;21443;-86
2022/09/01 12:12:41;;;;;;;3.45;1.92;;;;;;;29.33;35.42;99687.77;1758353;81;21738;-87
2022/09/01 12:15:47;;;;;;;8.58;2.10;;;;;;;29.39;35.59;99689.32;1752476;81;21785;-88
2022/09/01 12:18:57;;;;;;;2.35;1.62;;;;;;;29.47;35.22;99696.45;1760578;80;21238;-86
2022/09/01 12:22:13;;;;;;;6.00;1.70;;;;;;;29.39;34.93;99685.09;1751921;81;21154;-86
2022/09/01 12:25:31;;;;;;;11.73;2.00;;;;;;;29.49;34.79;99676.41;1758547;81;21141;-86
2022/09/01 12:28:40;;;;;;;5.58;1.85;;;;;;;29.35;34.48;99674.20;1752686;80;21255;-85
2022/09/01 12:31:49;;;;;;;7.03;1.92;;;;;;;29.27;34.56;99673.81;1755421;80;21129;-78
2022/09/01 12:35:07;;;;;;;4.80;1.77;;;;;;;29.23;34.67;99672.77;1757457;80;21160;-87
2022/09/01 12:38:30;;;;;;;3.25;1.52;;;;;;;29.08;34.69;99672.25;1749233;81;21145;-87
2022/09/01 12:41:45;;;;;;;4.47;1.90;;;;;;;28.95;35.23;99678.18;1752926;81;21444;-86
2022/09/01 12:45:09;;;;;;;6.42;1.60;;;;;;;28.94;35.01;99684.93;1757533;80;21196;-76
2022/09/01 12:48:10;;;;;;;3.90;1.90;;;;;;;28.80;34.73;99685.50;1757335;81;21565;-87
2022/09/01 12:51:30;;;;;;;9.33;1.95;;;;;;;28.81;34.67;99681.54;1755695;81;21440;-87
2022/09/01 12:54:38;;;;;;;3.58;1.45;;;;;;;28.89;34.68;99693.45;1756397;81;21215;-77
2022/09/01 12:57:50;;;;;;;2.70;1.40;;;;;;;28.86;34.52;99700.55;1753410;81;21162;-77
2022/09/01 13:01:16;;;;;;;8.48;1.50;;;;;;;28.90;34.66;99700.77;1756552;81;21256;-77
2022/09/01 13:04:32;;;;;;;11.10;1.80;;;;;;;28.96;34.45;99702.36;1759932;81;21234;-79
2022/09/01 13:07:38;;;;;;;6.70;2.05;;;;;;;28.96;34.36;99700.38;1762155;81;21155;-84
2022/09/01 13:10:50;;;;;;;7.53;1.80;;;;;;;28.91;34.52;99698.21;1754715;81;21214;-79
2022/09/01 13:13:59;;;;;;;8.75;1.50;;;;;;;28.94;33.55;99713.08;1759601;81;21488;-80
2022/09/01 13:17:05;;;;;;;5.42;1.60;;;;;;;28.92;33.21;99711.96;1712487;83;21205;-84
2022/09/01 13:20:14;;;;;;;6.75;1.52;;;;;;;28.93;32.90;99711.38;1769002;80;21182;-79
2022/09/01 13:23:20;;;;;;;3.87;1.50;;;;;;;28.68;33.13;99705.13;1724838;83;21239;-79
2022/09/01 13:26:26;;;;;;;2.05;1.22;;;;;;;28.65;33.50;99702.92;1724035;83;21204;-79
2022/09/01 13:29:31;;;;;;;6.53;1.55;;;;;;;28.64;33.16;99704.66;1723837;83;21259;-84
2022/09/01 13:32:36;;;;;;;4.50;1.75;;;;;;;28.48;33.42;99699.33;1695212;84;21179;-79
2022/09/01 13:35:45;;;;;;;3.30;2.08;;;;;;;28.48;32.94;99709.74;1716372;83;21176;-79
2022/09/01 13:38:50;;;;;;;4.28;1.85;;;;;;;28.57;32.98;99709.87;1724944;83;21218;-80
2022/09/01 13:41:56;;;;;;;3.87;1.60;;;;;;;28.46;32.59;99707.80;1724781;83;21755;-80
2022/09/01 13:45:00;;;;;;;4.45;1.77;;;;;;;28.46;32.97;99704.98;1724553;83;21570;-79
2022/09/01 13:48:07;;;;;;;4.08;1.57;;;;;;;28.40;32.79;99707.06;1682054;83;21232;-82
2022/09/01 13:51:13;;;;;;;3.83;1.45;;;;;;;28.35;32.68;99711.95;1767537;81;21149;-79
2022/09/01 13:54:19;;;;;;;3.10;1.60;;;;;;;28.40;32.99;99709.88;1768065;79;21797;-80
2022/09/01 13:57:24;;;;;;;3.95;1.65;;;;;;;28.49;32.82;99712.23;1768777;81;21172;-80
2022/09/01 14:00:35;;;;;;;8.75;2.12;;;;;;;28.56;32.50;99719.42;1768809;79;21175;-79
2022/09/01 14:03:42;;;;;;;2.55;1.90;;;;;;;28.45;32.54;99727.23;1769302;79;21184;-79
2022/09/01 14:06:50;;;;;;;5.78;1.95;;;;;;;28.47;32.19;99727.20;1769201;81;21157;-83
2022/09/01 14:09:55;;;;;;;12.28;1.85;;;;;;;28.47;32.09;99728.60;1770982;79;21184;-83
2022/09/01 14:13:00;;;;;;;2.50;1.60;;;;;;;28.47;32.12;99735.63;1770848;81;21725;-80
2022/09/01 14:16:07;;;;;;;9.15;3.00;;;;;;;28.46;31.79;99740.14;1770584;81;21176;-82
2022/09/01 14:19:12;;;;;;;4.42;1.87;;;;;;;28.41;31.55;99738.25;1771143;79;21725;-83
2022/09/01 14:22:18;;;;;;;6.10;2.45;;;;;;;28.42;31.68;99743.30;1770972;81;21176;-83
2022/09/01 14:25:25;;;;;;;6.97;2.75;;;;;;;28.35;31.20;99761.16;1769726;79;21208;-83
2022/09/01 14:28:31;;;;;;;9.05;2.12;;;;;;;28.13;31.44;99752.77;1770770;79;21125;-80
2022/09/01 14:31:37;;;;;;;3.70;2.00;;;;;;;28.13;31.73;99755.57;1770353;81;21176;-79
2022/09/01 14:34:42;;;;;;;4.15;1.95;;;;;;;28.27;31.27;99759.27;1769913;79;21184;-79
2022/09/01 14:37:47;;;;;;;4.67;2.30;;;;;;;28.13;31.30;99757.55;1770648;81;21708;-80
2022/09/01 14:40:55;;;;;;;3.83;2.40;;;;;;;28.25;31.47;99766.36;1770824;81;21114;-79
2022/09/01 14:44:02;;;;;;;2.67;1.67;;;;;;;27.99;31.44;99765.92;1770954;79;21777;-83
2022/09/01 14:47:07;;;;;;;3.98;1.50;;;;;;;27.68;31.97;99767.77;1770106;81;21164;-82
2022/09/01 14:50:13;;;;;;;3.60;1.50;;;;;;;27.45;31.67;99764.44;1770767;79;21202;-83
2022/09/01 14:53:22;;;;;;;4.40;1.50;;;;;;;27.54;31.40;99772.47;1771666;79;21125;-79